Time,TemperatureF,DewpointF,PressureIn,WindDirection,WindDirectionDegrees,WindSpeedMPH,WindSpeedGustMPH,Humidity,HourlyPrecipIn,Conditions,Clouds,dailyrainin,SoftwareType,DateUTC
2013-01-28 00:11:00,18.1,17.2,30.21,NNE,22,0.0,-999.0,96,-99.99,,,0.00,Acu-Link.com,2013-01-28 05:11:00,
2013-01-28 00:26:00,18.0,16.8,30.20,West,270,0.0,-999.0,95,-99.99,,,0.00,Acu-Link.com,2013-01-28 05:26:00,
2013-01-28 00:41:00,18.3,17.4,30.20,WSW,247,0.0,-999.0,96,-99.99,,,0.00,Acu-Link.com,2013-01-28 05:41:00,
2013-01-28 00:56:00,18.9,18.2,30.21,West,270,0.0,-999.0,97,-99.99,,,0.00,Acu-Link.com,2013-01-28 05:56:00,
2013-01-28 01:11:00,19.8,19.3,30.21,West,270,0.0,-999.0,98,-99.99,,,0.00,Acu-Link.com,2013-01-28 06:11:00,
2013-01-28 01:27:00,19.8,19.3,30.20,NE,45,0.0,-999.0,98,-99.99,,,0.00,Acu-Link.com,2013-01-28 06:27:00,
2013-01-28 01:42:00,19.8,19.3,30.19,NNE,22,0.0,-999.0,98,-99.99,,,0.00,Acu-Link.com,2013-01-28 06:42:00,
2013-01-28 01:57:00,19.2,18.5,30.18,NNE,22,0.0,-999.0,97,-99.99,,,0.00,Acu-Link.com,2013-01-28 06:57:00,
2013-01-28 02:12:00,18.7,17.8,30.18,North,0,0.0,-999.0,96,-99.99,,,0.00,Acu-Link.com,2013-01-28 07:12:00,
2013-01-28 02:27:00,18.3,17.1,30.17,NNE,22,0.0,-999.0,95,-99.99,,,0.00,Acu-Link.com,2013-01-28 07:27:00,
2013-01-28 02:42:00,18.1,17.2,30.16,NNE,22,0.0,-999.0,96,-99.99,,,0.00,Acu-Link.com,2013-01-28 07:42:00,
2013-01-28 02:57:00,19.4,18.9,30.15,NNE,22,0.0,-999.0,98,-99.99,,,0.00,Acu-Link.com,2013-01-28 07:57:00,
2013-01-28 03:12:00,20.3,19.8,30.16,SW,225,0.0,-999.0,98,-99.99,,,0.00,Acu-Link.com,2013-01-28 08:12:00,
2013-01-28 03:27:00,21.0,20.5,30.16,WNW,292,0.0,-999.0,98,-99.99,,,0.00,Acu-Link.com,2013-01-28 08:27:00,
2013-01-28 03:43:00,22.1,21.6,30.15,SSW,202,0.0,-999.0,98,-99.99,,,0.00,Acu-Link.com,2013-01-28 08:43:00,
2013-01-28 03:58:00,23.2,21.7,30.15,West,270,0.0,-999.0,94,-99.99,,,0.00,Acu-Link.com,2013-01-28 08:58:00,
2013-01-28 04:15:00,23.2,22.0,30.15,SW,225,0.0,-999.0,95,-99.99,,,0.00,Acu-Link.com,2013-01-28 09:15:00,
2013-01-28 04:30:00,23.4,21.2,30.14,WNW,292,0.0,-999.0,91,-99.99,,,0.00,Acu-Link.com,2013-01-28 09:30:00,
2013-01-28 04:45:00,23.5,21.0,30.14,West,270,0.0,-999.0,90,-99.99,,,0.00,Acu-Link.com,2013-01-28 09:45:00,
2013-01-28 05:00:00,24.3,21.0,30.13,ESE,112,0.0,-999.0,87,-99.99,,,0.00,Acu-Link.com,2013-01-28 10:00:00,
2013-01-28 05:15:00,24.8,20.9,30.11,West,270,0.0,-999.0,85,-99.99,,,0.00,Acu-Link.com,2013-01-28 10:15:00,
2013-01-28 05:30:00,25.0,21.1,30.11,SW,225,0.0,-999.0,85,-99.99,,,0.00,Acu-Link.com,2013-01-28 10:30:00,
2013-01-28 05:46:00,25.3,21.2,30.11,NNE,22,0.0,-999.0,84,-99.99,,,0.00,Acu-Link.com,2013-01-28 10:46:00,
2013-01-28 06:01:00,25.7,21.3,30.11,SW,225,0.0,-999.0,83,-99.99,,,0.00,Acu-Link.com,2013-01-28 11:01:00,
2013-01-28 06:16:00,25.9,21.7,30.11,East,90,0.0,-999.0,84,-99.99,,,0.00,Acu-Link.com,2013-01-28 11:16:00,
2013-01-28 06:31:00,26.1,21.9,30.11,WNW,292,0.0,-999.0,84,-99.99,,,0.00,Acu-Link.com,2013-01-28 11:31:00,
2013-01-28 06:46:00,26.2,21.8,30.11,ESE,112,0.0,-999.0,83,-99.99,,,0.00,Acu-Link.com,2013-01-28 11:46:00,
2013-01-28 07:01:00,26.4,22.5,30.11,SW,225,0.0,-999.0,85,-99.99,,,0.00,Acu-Link.com,2013-01-28 12:01:00,
2013-01-28 07:16:00,26.4,22.5,30.11,WNW,292,0.0,-999.0,85,-99.99,,,0.00,Acu-Link.com,2013-01-28 12:16:00,
2013-01-28 07:31:00,26.6,23.0,30.11,NNE,22,0.0,-999.0,86,-99.99,,,0.00,Acu-Link.com,2013-01-28 12:31:00,
2013-01-28 07:46:00,27.0,23.7,30.10,West,270,0.0,-999.0,87,-99.99,,,0.00,Acu-Link.com,2013-01-28 12:46:00,
2013-01-28 08:02:00,27.3,24.5,30.11,NNE,22,0.0,-999.0,89,-99.99,,,0.00,Acu-Link.com,2013-01-28 13:02:00,
2013-01-28 08:17:00,28.2,24.8,30.11,NNE,22,0.0,-999.0,87,-99.99,,,0.00,Acu-Link.com,2013-01-28 13:17:00,
2013-01-28 08:32:00,28.9,25.2,30.11,SW,225,0.0,-999.0,86,-99.99,,,0.00,Acu-Link.com,2013-01-28 13:32:00,
2013-01-28 08:47:00,29.3,25.1,30.11,SW,225,0.0,-999.0,84,-99.99,,,0.00,Acu-Link.com,2013-01-28 13:47:00,
2013-01-28 09:02:00,29.5,26.4,30.10,WSW,247,0.0,-999.0,88,-99.99,,,0.00,Acu-Link.com,2013-01-28 14:02:00,
2013-01-28 09:17:00,29.5,27.7,30.11,West,270,0.0,-999.0,93,-99.99,,,0.00,Acu-Link.com,2013-01-28 14:17:00,
2013-01-28 09:32:00,29.8,28.8,30.09,South,180,1.1,-999.0,96,-99.99,,,0.00,Acu-Link.com,2013-01-28 14:32:00,
2013-01-28 09:47:00,29.3,28.8,30.07,South,180,0.0,-999.0,98,-99.99,,,0.00,Acu-Link.com,2013-01-28 14:47:00,
2013-01-28 10:02:00,30.7,30.2,30.07,SW,225,0.0,-999.0,98,-99.99,,,0.00,Acu-Link.com,2013-01-28 15:02:00,
2013-01-28 10:18:00,30.7,30.2,30.07,WNW,292,1.1,-999.0,98,-99.99,,,0.00,Acu-Link.com,2013-01-28 15:18:00,
2013-01-28 10:33:00,30.9,30.4,30.06,SW,225,3.2,-999.0,98,-99.99,,,0.00,Acu-Link.com,2013-01-28 15:33:00,
2013-01-28 10:48:00,30.7,30.2,30.06,SW,225,3.2,-999.0,98,-99.99,,,0.00,Acu-Link.com,2013-01-28 15:48:00,
2013-01-28 11:18:00,31.8,31.3,30.03,South,180,2.7,-999.0,98,-99.99,,,0.00,Acu-Link.com,2013-01-28 16:18:00,
2013-01-28 11:33:00,32.5,32.0,30.02,SW,225,2.2,-999.0,98,-99.99,,,0.00,Acu-Link.com,2013-01-28 16:33:00,
2013-01-28 11:48:00,32.7,32.2,30.00,ENE,67,2.7,-999.0,98,-99.99,,,0.00,Acu-Link.com,2013-01-28 16:48:00,
2013-01-28 12:03:00,32.9,32.4,29.98,SSE,157,2.7,-999.0,98,-99.99,,,0.00,Acu-Link.com,2013-01-28 17:03:00,
2013-01-28 12:18:00,32.7,32.2,29.95,SW,225,2.2,-999.0,98,-99.99,,,0.00,Acu-Link.com,2013-01-28 17:18:00,
2013-01-28 12:34:00,32.7,32.2,29.95,SW,225,2.7,-999.0,98,-99.99,,,0.02,Acu-Link.com,2013-01-28 17:34:00,
2013-01-28 12:49:00,32.7,32.2,29.93,SSW,202,3.2,-999.0,98,-99.99,,,0.04,Acu-Link.com,2013-01-28 17:49:00,
2013-01-28 13:04:00,32.9,32.4,29.90,South,180,1.7,-999.0,98,-99.99,,,0.04,Acu-Link.com,2013-01-28 18:04:00,
2013-01-28 13:19:00,32.9,32.4,29.89,WSW,247,2.2,-999.0,98,-99.99,,,0.05,Acu-Link.com,2013-01-28 18:19:00,
2013-01-28 13:34:00,33.1,32.6,29.89,West,270,0.0,-999.0,98,-99.99,,,0.05,Acu-Link.com,2013-01-28 18:34:00,
2013-01-28 13:49:00,33.1,32.6,29.88,SSW,202,0.0,-999.0,98,-99.99,,,0.05,Acu-Link.com,2013-01-28 18:49:00,
2013-01-28 14:04:00,33.1,32.6,29.88,West,270,0.0,-999.0,98,-99.99,,,0.06,Acu-Link.com,2013-01-28 19:04:00,
2013-01-28 14:19:00,33.1,32.6,29.86,West,270,2.2,-999.0,98,-99.99,,,0.07,Acu-Link.com,2013-01-28 19:19:00,
2013-01-28 14:34:00,33.1,32.6,29.83,West,270,1.7,-999.0,98,-99.99,,,0.08,Acu-Link.com,2013-01-28 19:34:00,
2013-01-28 14:50:00,33.3,32.8,29.83,SSW,202,1.7,-999.0,98,-99.99,,,0.08,Acu-Link.com,2013-01-28 19:50:00,
2013-01-28 15:05:00,33.3,32.8,29.82,SW,225,2.2,-999.0,98,-99.99,,,0.10,Acu-Link.com,2013-01-28 20:05:00,
2013-01-28 15:20:00,33.3,32.8,29.82,West,270,0.0,-999.0,98,-99.99,,,0.12,Acu-Link.com,2013-01-28 20:20:00,
2013-01-28 15:35:00,33.4,32.9,29.83,SW,225,0.0,-999.0,98,-99.99,,,0.14,Acu-Link.com,2013-01-28 20:35:00,
2013-01-28 15:50:00,33.4,32.9,29.81,SSW,202,0.0,-999.0,98,-99.99,,,0.15,Acu-Link.com,2013-01-28 20:50:00,
2013-01-28 16:05:00,33.4,32.9,29.80,WSW,247,1.7,-999.0,98,-99.99,,,0.16,Acu-Link.com,2013-01-28 21:05:00,
2013-01-28 16:20:00,33.4,32.9,29.80,WSW,247,0.0,-999.0,98,-99.99,,,0.17,Acu-Link.com,2013-01-28 21:20:00,
2013-01-28 16:35:00,33.4,32.9,29.80,West,270,0.0,-999.0,98,-99.99,,,0.18,Acu-Link.com,2013-01-28 21:35:00,
2013-01-28 16:50:00,33.4,32.9,29.80,SW,225,0.0,-999.0,98,-99.99,,,0.18,Acu-Link.com,2013-01-28 21:50:00,
2013-01-28 17:05:00,33.4,32.9,29.79,SW,225,0.0,-999.0,98,-99.99,,,0.18,Acu-Link.com,2013-01-28 22:05:00,
2013-01-28 17:21:00,33.4,32.9,29.78,SW,225,0.0,-999.0,98,-99.99,,,0.18,Acu-Link.com,2013-01-28 22:21:00,
2013-01-28 17:36:00,33.6,33.1,29.77,WNW,292,0.0,-999.0,98,-99.99,,,0.18,Acu-Link.com,2013-01-28 22:36:00,
2013-01-28 17:51:00,33.6,33.1,29.76,WSW,247,0.0,-999.0,98,-99.99,,,0.18,Acu-Link.com,2013-01-28 22:51:00,
2013-01-28 18:06:00,33.6,33.1,29.77,SW,225,1.7,-999.0,98,-99.99,,,0.18,Acu-Link.com,2013-01-28 23:06:00,
2013-01-28 18:21:00,33.6,33.1,29.78,SW,225,0.0,-999.0,98,-99.99,,,0.18,Acu-Link.com,2013-01-28 23:21:00,
2013-01-28 18:36:00,33.6,33.1,29.78,SSW,202,2.2,-999.0,98,-99.99,,,0.18,Acu-Link.com,2013-01-28 23:36:00,
2013-01-28 18:51:00,33.4,32.9,29.79,South,180,0.0,-999.0,98,-99.99,,,0.18,Acu-Link.com,2013-01-28 23:51:00,
2013-01-28 19:06:00,33.4,32.9,29.77,South,180,0.0,-999.0,98,-99.99,,,0.18,Acu-Link.com,2013-01-29 00:06:00,
2013-01-28 19:21:00,33.4,32.9,29.78,ESE,112,1.7,-999.0,98,-99.99,,,0.19,Acu-Link.com,2013-01-29 00:21:00,
2013-01-28 19:37:00,33.6,33.1,29.75,West,270,0.0,-999.0,98,-99.99,,,0.19,Acu-Link.com,2013-01-29 00:37:00,
2013-01-28 19:52:00,33.6,33.1,29.76,NNE,22,0.0,-999.0,98,-99.99,,,0.19,Acu-Link.com,2013-01-29 00:52:00,
2013-01-28 20:07:00,33.6,33.1,29.76,WSW,247,0.0,-999.0,98,-99.99,,,0.19,Acu-Link.com,2013-01-29 01:07:00,
2013-01-28 20:22:00,33.6,33.1,29.75,SSE,157,2.2,-999.0,98,-99.99,,,0.19,Acu-Link.com,2013-01-29 01:22:00,
2013-01-28 20:37:00,33.8,33.3,29.75,NNE,22,1.1,-999.0,98,-99.99,,,0.19,Acu-Link.com,2013-01-29 01:37:00,
2013-01-28 20:52:00,33.8,33.3,29.75,SW,225,2.2,-999.0,98,-99.99,,,0.19,Acu-Link.com,2013-01-29 01:52:00,
2013-01-28 21:07:00,34.0,33.5,29.74,SW,225,0.0,-999.0,98,-99.99,,,0.19,Acu-Link.com,2013-01-29 02:07:00,
2013-01-28 21:22:00,34.0,33.5,29.73,SW,225,2.2,-999.0,98,-99.99,,,0.19,Acu-Link.com,2013-01-29 02:22:00,
2013-01-28 21:37:00,34.0,33.5,29.72,SW,225,1.1,-999.0,98,-99.99,,,0.19,Acu-Link.com,2013-01-29 02:37:00,
2013-01-28 21:53:00,34.2,33.7,29.72,South,180,0.0,-999.0,98,-99.99,,,0.19,Acu-Link.com,2013-01-29 02:53:00,
2013-01-28 22:08:00,34.2,33.7,29.72,SSE,157,0.0,-999.0,98,-99.99,,,0.19,Acu-Link.com,2013-01-29 03:08:00,
2013-01-28 22:23:00,34.2,33.7,29.72,West,270,2.7,-999.0,98,-99.99,,,0.19,Acu-Link.com,2013-01-29 03:23:00,
2013-01-28 22:38:00,34.2,33.7,29.72,ESE,112,0.0,-999.0,98,-99.99,,,0.19,Acu-Link.com,2013-01-29 03:38:00,
2013-01-28 22:53:00,34.2,33.7,29.72,SW,225,2.2,-999.0,98,-99.99,,,0.19,Acu-Link.com,2013-01-29 03:53:00,
2013-01-28 23:08:00,34.2,33.7,29.71,WSW,247,0.0,-999.0,98,-99.99,,,0.19,Acu-Link.com,2013-01-29 04:08:00,
2013-01-28 23:23:00,34.2,33.7,29.71,WSW,247,0.0,-999.0,98,-99.99,,,0.19,Acu-Link.com,2013-01-29 04:23:00,
2013-01-28 23:38:00,33.8,33.3,29.72,South,180,0.0,-999.0,98,-99.99,,,0.19,Acu-Link.com,2013-01-29 04:38:00,
2013-01-28 23:53:00,33.4,32.9,29.72,SSW,202,0.0,-999.0,98,-99.99,,,0.19,Acu-Link.com,2013-01-29 04:53:00,